sensor_id;sensor_type;location;lat;lon;timestamp;P1;durP1;ratioP1;P2;durP2;ratioP2
8540;SDS011;4308;51.294;6.590;2022-12-07T00:01:09;25.57;;;15.30;;
8540;SDS011;4308;51.294;6.590;2022-12-07T00:03:37;21.90;;;14.97;;
8540;SDS011;4308;51.294;6.590;2022-12-07T00:06:05;26.57;;;14.10;;
8540;SDS011;4308;51.294;6.590;2022-12-07T00:08:33;19.93;;;15.50;;
8540;SDS011;4308;51.294;6.590;2022-12-07T00:11:05;27.23;;;15.00;;
8540;SDS011;4308;51.294;6.590;2022-12-07T00:13:33;23.27;;;15.77;;
8540;SDS011;4308;51.294;6.590;2022-12-07T00:16:19;22.93;;;15.33;;
8540;SDS011;4308;51.294;6.590;2022-12-07T00:18:47;21.13;;;14.87;;
8540;SDS011;4308;51.294;6.590;2022-12-07T00:21:22;20.90;;;14.83;;
8540;SDS011;4308;51.294;6.590;2022-12-07T00:23:50;22.33;;;15.33;;
8540;SDS011;4308;51.294;6.590;2022-12-07T00:26:19;22.23;;;15.97;;
8540;SDS011;4308;51.294;6.590;2022-12-07T00:28:47;24.07;;;15.20;;
8540;SDS011;4308;51.294;6.590;2022-12-07T00:31:15;22.50;;;15.03;;
8540;SDS011;4308;51.294;6.590;2022-12-07T00:33:43;20.03;;;14.60;;
8540;SDS011;4308;51.294;6.590;2022-12-07T00:36:15;23.20;;;14.43;;
8540;SDS011;4308;51.294;6.590;2022-12-07T00:38:48;23.90;;;15.63;;
8540;SDS011;4308;51.294;6.590;2022-12-07T00:41:17;20.00;;;14.57;;
8540;SDS011;4308;51.294;6.590;2022-12-07T00:43:46;21.50;;;15.37;;
8540;SDS011;4308;51.294;6.590;2022-12-07T00:46:14;25.47;;;15.73;;
8540;SDS011;4308;51.294;6.590;2022-12-07T00:48:42;23.77;;;14.63;;
8540;SDS011;4308;51.294;6.590;2022-12-07T00:51:10;20.63;;;15.57;;
8540;SDS011;4308;51.294;6.590;2022-12-07T00:53:38;30.00;;;16.30;;
8540;SDS011;4308;51.294;6.590;2022-12-07T00:56:08;24.33;;;16.37;;
8540;SDS011;4308;51.294;6.590;2022-12-07T00:58:36;25.27;;;14.70;;
8540;SDS011;4308;51.294;6.590;2022-12-07T01:01:04;23.90;;;17.03;;
8540;SDS011;4308;51.294;6.590;2022-12-07T01:03:32;20.87;;;15.80;;
8540;SDS011;4308;51.294;6.590;2022-12-07T01:06:00;22.97;;;16.37;;
8540;SDS011;4308;51.294;6.590;2022-12-07T01:08:28;20.73;;;15.90;;
8540;SDS011;4308;51.294;6.590;2022-12-07T01:10:59;24.37;;;16.47;;
8540;SDS011;4308;51.294;6.590;2022-12-07T01:13:27;24.07;;;16.23;;
8540;SDS011;4308;51.294;6.590;2022-12-07T01:15:59;22.97;;;16.33;;
8540;SDS011;4308;51.294;6.590;2022-12-07T01:18:28;21.97;;;16.70;;
8540;SDS011;4308;51.294;6.590;2022-12-07T01:20:57;22.03;;;15.47;;
8540;SDS011;4308;51.294;6.590;2022-12-07T01:23:24;21.80;;;16.30;;
8540;SDS011;4308;51.294;6.590;2022-12-07T01:25:59;22.53;;;14.93;;
8540;SDS011;4308;51.294;6.590;2022-12-07T01:28:27;22.33;;;16.40;;
8540;SDS011;4308;51.294;6.590;2022-12-07T01:33:32;23.43;;;16.63;;
8540;SDS011;4308;51.294;6.590;2022-12-07T01:36:00;26.37;;;17.77;;
8540;SDS011;4308;51.294;6.590;2022-12-07T01:38:29;27.47;;;16.60;;
8540;SDS011;4308;51.294;6.590;2022-12-07T01:40:56;27.83;;;17.93;;
8540;SDS011;4308;51.294;6.590;2022-12-07T01:43:25;24.97;;;18.27;;
8540;SDS011;4308;51.294;6.590;2022-12-07T01:45:53;25.47;;;18.23;;
8540;SDS011;4308;51.294;6.590;2022-12-07T01:48:22;25.00;;;17.40;;
8540;SDS011;4308;51.294;6.590;2022-12-07T01:50:51;26.20;;;18.10;;
8540;SDS011;4308;51.294;6.590;2022-12-07T01:53:20;26.10;;;17.80;;
8540;SDS011;4308;51.294;6.590;2022-12-07T01:55:49;30.57;;;18.87;;
8540;SDS011;4308;51.294;6.590;2022-12-07T01:58:17;27.40;;;18.63;;
8540;SDS011;4308;51.294;6.590;2022-12-07T02:00:44;24.70;;;17.17;;
8540;SDS011;4308;51.294;6.590;2022-12-07T02:05:42;27.20;;;18.73;;
8540;SDS011;4308;51.294;6.590;2022-12-07T02:08:10;28.00;;;17.50;;
8540;SDS011;4308;51.294;6.590;2022-12-07T02:10:39;26.57;;;17.63;;
8540;SDS011;4308;51.294;6.590;2022-12-07T02:13:11;30.20;;;19.77;;
8540;SDS011;4308;51.294;6.590;2022-12-07T02:18:09;38.00;;;22.10;;
8540;SDS011;4308;51.294;6.590;2022-12-07T02:20:57;32.37;;;19.23;;
8540;SDS011;4308;51.294;6.590;2022-12-07T02:23:35;33.23;;;20.53;;
8540;SDS011;4308;51.294;6.590;2022-12-07T02:29:10;34.20;;;19.67;;
8540;SDS011;4308;51.294;6.590;2022-12-07T02:31:42;31.90;;;20.67;;
8540;SDS011;4308;51.294;6.590;2022-12-07T02:34:13;28.77;;;19.63;;
8540;SDS011;4308;51.294;6.590;2022-12-07T02:36:43;28.80;;;20.57;;
8540;SDS011;4308;51.294;6.590;2022-12-07T02:39:17;29.90;;;20.57;;
8540;SDS011;4308;51.294;6.590;2022-12-07T02:41:47;30.13;;;19.50;;
8540;SDS011;4308;51.294;6.590;2022-12-07T02:44:18;30.27;;;19.63;;
8540;SDS011;4308;51.294;6.590;2022-12-07T02:46:48;29.60;;;18.87;;
8540;SDS011;4308;51.294;6.590;2022-12-07T02:49:17;26.13;;;18.33;;
8540;SDS011;4308;51.294;6.590;2022-12-07T02:51:46;26.97;;;17.50;;
8540;SDS011;4308;51.294;6.590;2022-12-07T02:54:14;28.07;;;18.30;;
8540;SDS011;4308;51.294;6.590;2022-12-07T03:04:45;27.17;;;18.50;;
8540;SDS011;4308;51.294;6.590;2022-12-07T03:09:57;29.50;;;19.53;;
8540;SDS011;4308;51.294;6.590;2022-12-07T03:12:32;27.30;;;17.73;;
8540;SDS011;4308;51.294;6.590;2022-12-07T03:15:06;38.20;;;20.73;;
8540;SDS011;4308;51.294;6.590;2022-12-07T03:17:35;32.23;;;19.40;;
8540;SDS011;4308;51.294;6.590;2022-12-07T03:20:05;28.20;;;18.63;;
8540;SDS011;4308;51.294;6.590;2022-12-07T03:22:34;26.50;;;18.63;;
8540;SDS011;4308;51.294;6.590;2022-12-07T03:25:04;32.77;;;20.23;;
8540;SDS011;4308;51.294;6.590;2022-12-07T03:27:34;30.00;;;20.10;;
8540;SDS011;4308;51.294;6.590;2022-12-07T03:30:05;33.87;;;19.50;;
8540;SDS011;4308;51.294;6.590;2022-12-07T03:32:41;29.73;;;19.90;;
8540;SDS011;4308;51.294;6.590;2022-12-07T03:35:14;29.07;;;19.70;;
8540;SDS011;4308;51.294;6.590;2022-12-07T03:37:49;30.90;;;20.17;;
8540;SDS011;4308;51.294;6.590;2022-12-07T03:42:49;29.97;;;19.07;;
8540;SDS011;4308;51.294;6.590;2022-12-07T03:45:17;30.73;;;17.67;;
8540;SDS011;4308;51.294;6.590;2022-12-07T03:50:26;33.20;;;20.33;;
8540;SDS011;4308;51.294;6.590;2022-12-07T03:52:56;31.20;;;19.90;;
8540;SDS011;4308;51.294;6.590;2022-12-07T03:55:32;27.60;;;18.40;;
8540;SDS011;4308;51.294;6.590;2022-12-07T03:58:03;25.57;;;17.97;;
8540;SDS011;4308;51.294;6.590;2022-12-07T04:00:31;30.77;;;18.90;;
8540;SDS011;4308;51.294;6.590;2022-12-07T04:02:58;26.93;;;18.00;;
8540;SDS011;4308;51.294;6.590;2022-12-07T04:05:26;30.37;;;17.40;;
8540;SDS011;4308;51.294;6.590;2022-12-07T04:07:54;29.43;;;18.10;;
8540;SDS011;4308;51.294;6.590;2022-12-07T04:10:21;27.23;;;16.40;;
8540;SDS011;4308;51.294;6.590;2022-12-07T04:12:49;25.80;;;16.77;;
8540;SDS011;4308;51.294;6.590;2022-12-07T04:15:16;25.40;;;16.37;;
8540;SDS011;4308;51.294;6.590;2022-12-07T04:17:44;25.67;;;17.17;;
8540;SDS011;4308;51.294;6.590;2022-12-07T04:20:11;26.83;;;15.47;;
8540;SDS011;4308;51.294;6.590;2022-12-07T04:22:39;24.47;;;16.87;;
8540;SDS011;4308;51.294;6.590;2022-12-07T04:25:07;30.80;;;17.00;;
8540;SDS011;4308;51.294;6.590;2022-12-07T04:27:34;21.53;;;12.07;;
8540;SDS011;4308;51.294;6.590;2022-12-07T04:30:02;23.87;;;14.50;;
8540;SDS011;4308;51.294;6.590;2022-12-07T04:32:30;19.17;;;13.63;;
8540;SDS011;4308;51.294;6.590;2022-12-07T04:34:57;24.67;;;15.63;;
8540;SDS011;4308;51.294;6.590;2022-12-07T04:37:24;23.77;;;14.57;;
8540;SDS011;4308;51.294;6.590;2022-12-07T04:39:52;20.30;;;13.67;;
8540;SDS011;4308;51.294;6.590;2022-12-07T04:42:19;20.63;;;14.87;;
8540;SDS011;4308;51.294;6.590;2022-12-07T04:44:47;22.30;;;14.23;;
8540;SDS011;4308;51.294;6.590;2022-12-07T04:47:14;21.77;;;13.67;;
8540;SDS011;4308;51.294;6.590;2022-12-07T04:49:42;19.63;;;12.13;;
8540;SDS011;4308;51.294;6.590;2022-12-07T04:52:09;22.47;;;12.73;;
8540;SDS011;4308;51.294;6.590;2022-12-07T04:54:37;18.13;;;12.63;;
8540;SDS011;4308;51.294;6.590;2022-12-07T04:57:04;24.87;;;11.73;;
8540;SDS011;4308;51.294;6.590;2022-12-07T04:59:32;20.10;;;12.50;;
8540;SDS011;4308;51.294;6.590;2022-12-07T05:01:59;16.93;;;12.13;;
8540;SDS011;4308;51.294;6.590;2022-12-07T05:04:27;14.30;;;11.40;;
8540;SDS011;4308;51.294;6.590;2022-12-07T05:06:54;18.23;;;11.60;;
8540;SDS011;4308;51.294;6.590;2022-12-07T05:09:22;17.30;;;11.13;;
8540;SDS011;4308;51.294;6.590;2022-12-07T05:11:49;16.27;;;11.10;;
8540;SDS011;4308;51.294;6.590;2022-12-07T05:14:20;19.17;;;11.50;;
8540;SDS011;4308;51.294;6.590;2022-12-07T05:16:48;15.97;;;12.60;;
8540;SDS011;4308;51.294;6.590;2022-12-07T05:19:17;17.13;;;12.00;;
8540;SDS011;4308;51.294;6.590;2022-12-07T05:21:44;20.30;;;10.73;;
8540;SDS011;4308;51.294;6.590;2022-12-07T05:24:13;13.27;;;10.37;;
8540;SDS011;4308;51.294;6.590;2022-12-07T05:26:40;16.67;;;10.40;;
8540;SDS011;4308;51.294;6.590;2022-12-07T05:29:09;15.23;;;10.40;;
8540;SDS011;4308;51.294;6.590;2022-12-07T05:31:37;16.30;;;11.50;;
8540;SDS011;4308;51.294;6.590;2022-12-07T05:34:05;12.77;;;9.80;;
8540;SDS011;4308;51.294;6.590;2022-12-07T05:36:33;24.33;;;10.63;;
8540;SDS011;4308;51.294;6.590;2022-12-07T05:39:00;16.47;;;10.40;;
8540;SDS011;4308;51.294;6.590;2022-12-07T05:41:28;14.53;;;9.57;;
8540;SDS011;4308;51.294;6.590;2022-12-07T05:43:55;14.83;;;10.63;;
8540;SDS011;4308;51.294;6.590;2022-12-07T05:46:23;15.73;;;10.40;;
8540;SDS011;4308;51.294;6.590;2022-12-07T05:48:50;19.83;;;9.90;;
8540;SDS011;4308;51.294;6.590;2022-12-07T05:51:18;14.43;;;9.80;;
8540;SDS011;4308;51.294;6.590;2022-12-07T05:53:46;15.73;;;10.07;;
8540;SDS011;4308;51.294;6.590;2022-12-07T05:56:13;15.30;;;10.07;;
8540;SDS011;4308;51.294;6.590;2022-12-07T05:58:40;17.27;;;10.57;;
8540;SDS011;4308;51.294;6.590;2022-12-07T06:01:08;17.27;;;10.53;;
8540;SDS011;4308;51.294;6.590;2022-12-07T06:03:35;15.03;;;11.20;;
8540;SDS011;4308;51.294;6.590;2022-12-07T06:06:03;19.30;;;10.77;;
8540;SDS011;4308;51.294;6.590;2022-12-07T06:08:30;17.20;;;11.27;;
8540;SDS011;4308;51.294;6.590;2022-12-07T06:10:58;13.80;;;10.50;;
8540;SDS011;4308;51.294;6.590;2022-12-07T06:13:25;16.27;;;10.33;;
8540;SDS011;4308;51.294;6.590;2022-12-07T06:15:53;17.23;;;10.80;;
8540;SDS011;4308;51.294;6.590;2022-12-07T06:18:20;12.77;;;9.83;;
8540;SDS011;4308;51.294;6.590;2022-12-07T06:20:48;14.47;;;10.10;;
8540;SDS011;4308;51.294;6.590;2022-12-07T06:23:15;17.13;;;10.80;;
8540;SDS011;4308;51.294;6.590;2022-12-07T06:25:45;15.80;;;9.50;;
8540;SDS011;4308;51.294;6.590;2022-12-07T06:28:12;17.83;;;10.70;;
8540;SDS011;4308;51.294;6.590;2022-12-07T06:30:39;14.37;;;10.37;;
8540;SDS011;4308;51.294;6.590;2022-12-07T06:33:07;14.37;;;10.27;;
8540;SDS011;4308;51.294;6.590;2022-12-07T06:35:35;17.53;;;9.67;;
8540;SDS011;4308;51.294;6.590;2022-12-07T06:38:02;18.20;;;11.27;;
8540;SDS011;4308;51.294;6.590;2022-12-07T06:40:30;17.10;;;9.50;;
8540;SDS011;4308;51.294;6.590;2022-12-07T06:42:57;14.07;;;9.83;;
8540;SDS011;4308;51.294;6.590;2022-12-07T06:45:24;16.17;;;10.10;;
8540;SDS011;4308;51.294;6.590;2022-12-07T06:47:52;15.07;;;10.00;;
8540;SDS011;4308;51.294;6.590;2022-12-07T06:50:19;17.47;;;10.33;;
8540;SDS011;4308;51.294;6.590;2022-12-07T06:52:47;11.63;;;9.70;;
8540;SDS011;4308;51.294;6.590;2022-12-07T06:55:14;15.07;;;10.10;;
8540;SDS011;4308;51.294;6.590;2022-12-07T06:57:42;14.00;;;9.87;;
8540;SDS011;4308;51.294;6.590;2022-12-07T07:00:10;13.87;;;9.73;;
8540;SDS011;4308;51.294;6.590;2022-12-07T07:02:45;17.43;;;9.73;;
8540;SDS011;4308;51.294;6.590;2022-12-07T07:05:13;16.97;;;10.40;;
8540;SDS011;4308;51.294;6.590;2022-12-07T07:07:40;15.53;;;9.77;;
8540;SDS011;4308;51.294;6.590;2022-12-07T07:10:28;14.10;;;8.87;;
8540;SDS011;4308;51.294;6.590;2022-12-07T07:12:55;14.57;;;9.30;;
8540;SDS011;4308;51.294;6.590;2022-12-07T07:15:23;20.80;;;9.60;;
8540;SDS011;4308;51.294;6.590;2022-12-07T07:17:51;15.73;;;9.97;;
8540;SDS011;4308;51.294;6.590;2022-12-07T07:20:18;13.40;;;9.40;;
8540;SDS011;4308;51.294;6.590;2022-12-07T07:22:45;14.83;;;8.97;;
8540;SDS011;4308;51.294;6.590;2022-12-07T07:25:13;16.10;;;8.77;;
8540;SDS011;4308;51.294;6.590;2022-12-07T07:27:41;12.87;;;8.80;;
8540;SDS011;4308;51.294;6.590;2022-12-07T07:30:09;12.60;;;7.87;;
8540;SDS011;4308;51.294;6.590;2022-12-07T07:32:36;14.10;;;10.13;;
8540;SDS011;4308;51.294;6.590;2022-12-07T07:35:04;16.37;;;8.53;;
8540;SDS011;4308;51.294;6.590;2022-12-07T07:37:31;11.57;;;8.67;;
8540;SDS011;4308;51.294;6.590;2022-12-07T07:39:59;14.53;;;9.17;;
8540;SDS011;4308;51.294;6.590;2022-12-07T07:42:27;13.03;;;8.87;;
8540;SDS011;4308;51.294;6.590;2022-12-07T07:44:54;14.73;;;9.07;;
8540;SDS011;4308;51.294;6.590;2022-12-07T07:47:22;17.37;;;9.30;;
8540;SDS011;4308;51.294;6.590;2022-12-07T07:49:49;16.83;;;9.30;;
8540;SDS011;4308;51.294;6.590;2022-12-07T07:52:17;15.47;;;9.27;;
8540;SDS011;4308;51.294;6.590;2022-12-07T07:54:44;15.60;;;8.33;;
8540;SDS011;4308;51.294;6.590;2022-12-07T07:57:12;15.20;;;8.90;;
8540;SDS011;4308;51.294;6.590;2022-12-07T07:59:39;12.00;;;8.87;;
8540;SDS011;4308;51.294;6.590;2022-12-07T08:02:09;16.83;;;9.17;;
8540;SDS011;4308;51.294;6.590;2022-12-07T08:04:39;18.97;;;10.17;;
8540;SDS011;4308;51.294;6.590;2022-12-07T08:07:07;17.47;;;9.87;;
8540;SDS011;4308;51.294;6.590;2022-12-07T08:09:34;15.90;;;9.40;;
8540;SDS011;4308;51.294;6.590;2022-12-07T08:12:02;18.90;;;10.20;;
8540;SDS011;4308;51.294;6.590;2022-12-07T08:14:29;16.90;;;9.37;;
8540;SDS011;4308;51.294;6.590;2022-12-07T08:16:57;14.23;;;9.23;;
8540;SDS011;4308;51.294;6.590;2022-12-07T08:19:25;15.67;;;9.63;;
8540;SDS011;4308;51.294;6.590;2022-12-07T08:21:52;17.57;;;9.73;;
8540;SDS011;4308;51.294;6.590;2022-12-07T08:24:20;19.73;;;10.40;;
8540;SDS011;4308;51.294;6.590;2022-12-07T08:26:47;17.93;;;9.70;;
8540;SDS011;4308;51.294;6.590;2022-12-07T08:29:14;17.63;;;10.10;;
8540;SDS011;4308;51.294;6.590;2022-12-07T08:31:42;14.23;;;8.73;;
8540;SDS011;4308;51.294;6.590;2022-12-07T08:34:10;17.87;;;9.63;;
8540;SDS011;4308;51.294;6.590;2022-12-07T08:36:37;20.97;;;10.93;;
8540;SDS011;4308;51.294;6.590;2022-12-07T08:39:05;15.37;;;10.33;;
8540;SDS011;4308;51.294;6.590;2022-12-07T08:41:53;16.53;;;10.10;;
8540;SDS011;4308;51.294;6.590;2022-12-07T08:44:21;14.90;;;9.90;;
8540;SDS011;4308;51.294;6.590;2022-12-07T08:46:56;17.97;;;10.07;;
8540;SDS011;4308;51.294;6.590;2022-12-07T08:49:28;16.27;;;10.40;;
8540;SDS011;4308;51.294;6.590;2022-12-07T08:51:58;15.00;;;9.87;;
8540;SDS011;4308;51.294;6.590;2022-12-07T08:54:25;13.90;;;10.07;;
8540;SDS011;4308;51.294;6.590;2022-12-07T08:56:53;15.50;;;9.63;;
8540;SDS011;4308;51.294;6.590;2022-12-07T08:59:25;14.77;;;9.23;;
8540;SDS011;4308;51.294;6.590;2022-12-07T09:01:53;14.90;;;8.90;;
8540;SDS011;4308;51.294;6.590;2022-12-07T09:04:21;14.70;;;9.40;;
8540;SDS011;4308;51.294;6.590;2022-12-07T09:06:48;12.77;;;8.60;;
8540;SDS011;4308;51.294;6.590;2022-12-07T09:09:16;13.17;;;8.37;;
8540;SDS011;4308;51.294;6.590;2022-12-07T09:11:43;12.40;;;8.00;;
8540;SDS011;4308;51.294;6.590;2022-12-07T09:14:11;10.93;;;8.53;;
8540;SDS011;4308;51.294;6.590;2022-12-07T09:16:39;11.93;;;9.17;;
8540;SDS011;4308;51.294;6.590;2022-12-07T09:19:07;15.93;;;9.00;;
8540;SDS011;4308;51.294;6.590;2022-12-07T09:21:35;15.47;;;9.97;;
8540;SDS011;4308;51.294;6.590;2022-12-07T09:24:02;15.77;;;10.43;;
8540;SDS011;4308;51.294;6.590;2022-12-07T09:26:30;20.03;;;10.23;;
8540;SDS011;4308;51.294;6.590;2022-12-07T09:28:57;15.93;;;11.53;;
8540;SDS011;4308;51.294;6.590;2022-12-07T09:31:25;17.27;;;10.97;;
8540;SDS011;4308;51.294;6.590;2022-12-07T09:33:54;19.43;;;10.60;;
8540;SDS011;4308;51.294;6.590;2022-12-07T09:36:22;15.10;;;10.10;;
8540;SDS011;4308;51.294;6.590;2022-12-07T09:38:49;15.17;;;8.70;;
8540;SDS011;4308;51.294;6.590;2022-12-07T09:41:17;17.70;;;8.40;;
8540;SDS011;4308;51.294;6.590;2022-12-07T09:43:44;12.60;;;9.00;;
8540;SDS011;4308;51.294;6.590;2022-12-07T09:46:13;13.07;;;7.73;;
8540;SDS011;4308;51.294;6.590;2022-12-07T09:48:42;10.10;;;7.43;;
8540;SDS011;4308;51.294;6.590;2022-12-07T09:51:17;10.23;;;6.90;;
8540;SDS011;4308;51.294;6.590;2022-12-07T09:53:54;13.37;;;6.90;;
8540;SDS011;4308;51.294;6.590;2022-12-07T09:56:22;15.70;;;7.10;;
8540;SDS011;4308;51.294;6.590;2022-12-07T09:58:51;11.23;;;6.87;;
8540;SDS011;4308;51.294;6.590;2022-12-07T10:01:21;11.73;;;7.07;;
8540;SDS011;4308;51.294;6.590;2022-12-07T10:03:53;11.53;;;6.70;;
8540;SDS011;4308;51.294;6.590;2022-12-07T10:06:20;12.40;;;6.70;;
8540;SDS011;4308;51.294;6.590;2022-12-07T10:08:48;11.10;;;7.00;;
8540;SDS011;4308;51.294;6.590;2022-12-07T10:11:15;11.47;;;6.93;;
8540;SDS011;4308;51.294;6.590;2022-12-07T10:13:44;9.97;;;6.10;;
8540;SDS011;4308;51.294;6.590;2022-12-07T10:18:52;11.47;;;6.40;;
8540;SDS011;4308;51.294;6.590;2022-12-07T10:21:21;10.33;;;6.33;;
8540;SDS011;4308;51.294;6.590;2022-12-07T10:26:30;11.10;;;5.87;;
8540;SDS011;4308;51.294;6.590;2022-12-07T10:31:44;16.30;;;5.93;;
8540;SDS011;4308;51.294;6.590;2022-12-07T10:34:20;10.43;;;5.70;;
8540;SDS011;4308;51.294;6.590;2022-12-07T10:36:48;14.97;;;6.60;;
8540;SDS011;4308;51.294;6.590;2022-12-07T10:39:19;17.30;;;5.87;;
8540;SDS011;4308;51.294;6.590;2022-12-07T10:42:00;13.13;;;6.90;;
8540;SDS011;4308;51.294;6.590;2022-12-07T10:44:31;8.93;;;5.60;;
8540;SDS011;4308;51.294;6.590;2022-12-07T11:00:21;10.37;;;4.50;;
8540;SDS011;4308;51.294;6.590;2022-12-07T11:06:01;8.70;;;4.97;;
8540;SDS011;4308;51.294;6.590;2022-12-07T11:10:59;13.93;;;4.13;;
8540;SDS011;4308;51.294;6.590;2022-12-07T11:21:32;13.70;;;5.33;;
8540;SDS011;4308;51.294;6.590;2022-12-07T11:32:04;12.40;;;5.53;;
8540;SDS011;4308;51.294;6.590;2022-12-07T11:37:35;11.33;;;5.60;;
8540;SDS011;4308;51.294;6.590;2022-12-07T11:40:13;13.60;;;5.80;;
8540;SDS011;4308;51.294;6.590;2022-12-07T11:42:46;11.13;;;4.73;;
8540;SDS011;4308;51.294;6.590;2022-12-07T11:45:19;10.87;;;5.20;;
8540;SDS011;4308;51.294;6.590;2022-12-07T11:47:59;9.20;;;5.50;;
8540;SDS011;4308;51.294;6.590;2022-12-07T11:50:36;11.20;;;6.10;;
8540;SDS011;4308;51.294;6.590;2022-12-07T11:53:10;10.47;;;5.50;;
8540;SDS011;4308;51.294;6.590;2022-12-07T11:55:51;8.80;;;4.80;;
8540;SDS011;4308;51.294;6.590;2022-12-07T12:03:36;9.57;;;5.97;;
8540;SDS011;4308;51.294;6.590;2022-12-07T12:06:05;13.30;;;6.23;;
8540;SDS011;4308;51.294;6.590;2022-12-07T12:08:35;7.00;;;5.50;;
8540;SDS011;4308;51.294;6.590;2022-12-07T12:14:09;13.33;;;5.50;;
8540;SDS011;4308;51.294;6.590;2022-12-07T12:22:14;11.00;;;3.97;;
8540;SDS011;4308;51.294;6.590;2022-12-07T12:24:43;10.10;;;3.67;;
8540;SDS011;4308;51.294;6.590;2022-12-07T12:27:18;7.37;;;4.13;;
8540;SDS011;4308;51.294;6.590;2022-12-07T12:29:51;8.23;;;3.67;;
8540;SDS011;4308;51.294;6.590;2022-12-07T12:32:20;10.30;;;3.93;;
8540;SDS011;4308;51.294;6.590;2022-12-07T12:37:51;8.60;;;3.80;;
8540;SDS011;4308;51.294;6.590;2022-12-07T12:42:55;8.70;;;2.67;;
8540;SDS011;4308;51.294;6.590;2022-12-07T12:45:27;5.43;;;2.70;;
8540;SDS011;4308;51.294;6.590;2022-12-07T12:47:56;6.37;;;2.80;;
8540;SDS011;4308;51.294;6.590;2022-12-07T12:50:25;8.23;;;2.60;;
8540;SDS011;4308;51.294;6.590;2022-12-07T12:52:57;5.67;;;2.97;;
8540;SDS011;4308;51.294;6.590;2022-12-07T12:55:29;7.60;;;2.60;;
8540;SDS011;4308;51.294;6.590;2022-12-07T13:00:45;7.37;;;3.00;;
8540;SDS011;4308;51.294;6.590;2022-12-07T13:03:22;10.80;;;3.43;;
8540;SDS011;4308;51.294;6.590;2022-12-07T13:06:06;10.53;;;3.83;;
8540;SDS011;4308;51.294;6.590;2022-12-07T13:08:40;4.77;;;2.50;;
8540;SDS011;4308;51.294;6.590;2022-12-07T13:13:45;3.60;;;2.90;;
8540;SDS011;4308;51.294;6.590;2022-12-07T13:18:40;7.50;;;3.07;;
8540;SDS011;4308;51.294;6.590;2022-12-07T13:31:41;8.30;;;2.60;;
8540;SDS011;4308;51.294;6.590;2022-12-07T13:36:56;7.13;;;2.87;;
8540;SDS011;4308;51.294;6.590;2022-12-07T13:39:24;10.43;;;2.53;;
8540;SDS011;4308;51.294;6.590;2022-12-07T13:41:53;5.13;;;2.47;;
8540;SDS011;4308;51.294;6.590;2022-12-07T13:44:21;7.53;;;2.50;;
8540;SDS011;4308;51.294;6.590;2022-12-07T13:49:25;6.70;;;3.10;;
8540;SDS011;4308;51.294;6.590;2022-12-07T13:51:53;6.53;;;3.20;;
8540;SDS011;4308;51.294;6.590;2022-12-07T13:54:21;10.77;;;3.40;;
8540;SDS011;4308;51.294;6.590;2022-12-07T13:56:50;4.50;;;3.30;;
8540;SDS011;4308;51.294;6.590;2022-12-07T13:59:21;10.53;;;3.00;;
8540;SDS011;4308;51.294;6.590;2022-12-07T14:01:50;10.97;;;3.43;;
8540;SDS011;4308;51.294;6.590;2022-12-07T14:04:34;13.43;;;3.17;;
8540;SDS011;4308;51.294;6.590;2022-12-07T14:07:19;12.60;;;5.63;;
8540;SDS011;4308;51.294;6.590;2022-12-07T14:10:22;8.10;;;3.50;;
8540;SDS011;4308;51.294;6.590;2022-12-07T14:12:41;6.77;;;3.73;;
8540;SDS011;4308;51.294;6.590;2022-12-07T14:15:22;7.43;;;3.20;;
8540;SDS011;4308;51.294;6.590;2022-12-07T14:17:51;7.43;;;3.00;;
8540;SDS011;4308;51.294;6.590;2022-12-07T14:20:28;6.93;;;3.00;;
8540;SDS011;4308;51.294;6.590;2022-12-07T14:22:56;5.13;;;2.50;;
8540;SDS011;4308;51.294;6.590;2022-12-07T14:25:24;8.67;;;2.77;;
8540;SDS011;4308;51.294;6.590;2022-12-07T14:27:53;19.07;;;3.73;;
8540;SDS011;4308;51.294;6.590;2022-12-07T14:44:44;8.70;;;4.13;;
8540;SDS011;4308;51.294;6.590;2022-12-07T14:47:11;8.70;;;3.90;;
8540;SDS011;4308;51.294;6.590;2022-12-07T14:49:59;8.97;;;4.07;;
8540;SDS011;4308;51.294;6.590;2022-12-07T14:52:32;10.03;;;4.63;;
8540;SDS011;4308;51.294;6.590;2022-12-07T14:55:27;8.53;;;3.37;;
8540;SDS011;4308;51.294;6.590;2022-12-07T14:57:55;4.67;;;2.60;;
8540;SDS011;4308;51.294;6.590;2022-12-07T15:00:23;9.67;;;2.93;;
8540;SDS011;4308;51.294;6.590;2022-12-07T15:02:51;6.77;;;3.47;;
8540;SDS011;4308;51.294;6.590;2022-12-07T15:05:19;6.73;;;3.30;;
8540;SDS011;4308;51.294;6.590;2022-12-07T15:07:47;4.87;;;3.10;;
8540;SDS011;4308;51.294;6.590;2022-12-07T15:12:50;7.17;;;2.90;;
8540;SDS011;4308;51.294;6.590;2022-12-07T15:15:18;8.23;;;3.30;;
8540;SDS011;4308;51.294;6.590;2022-12-07T15:17:45;6.67;;;3.27;;
8540;SDS011;4308;51.294;6.590;2022-12-07T15:20:13;9.20;;;3.80;;
8540;SDS011;4308;51.294;6.590;2022-12-07T15:22:41;6.47;;;3.60;;
8540;SDS011;4308;51.294;6.590;2022-12-07T15:25:09;8.93;;;4.03;;
8540;SDS011;4308;51.294;6.590;2022-12-07T15:27:39;7.90;;;3.40;;
8540;SDS011;4308;51.294;6.590;2022-12-07T15:30:07;10.73;;;3.87;;
8540;SDS011;4308;51.294;6.590;2022-12-07T15:32:34;7.43;;;3.80;;
8540;SDS011;4308;51.294;6.590;2022-12-07T15:35:02;10.13;;;3.63;;
8540;SDS011;4308;51.294;6.590;2022-12-07T15:37:30;11.33;;;3.87;;
8540;SDS011;4308;51.294;6.590;2022-12-07T15:39:57;4.10;;;3.07;;
8540;SDS011;4308;51.294;6.590;2022-12-07T15:42:32;9.10;;;3.50;;
8540;SDS011;4308;51.294;6.590;2022-12-07T15:45:00;10.23;;;3.23;;
8540;SDS011;4308;51.294;6.590;2022-12-07T15:47:28;9.07;;;3.77;;
8540;SDS011;4308;51.294;6.590;2022-12-07T15:49:55;10.57;;;3.70;;
8540;SDS011;4308;51.294;6.590;2022-12-07T15:52:23;12.03;;;4.00;;
8540;SDS011;4308;51.294;6.590;2022-12-07T15:54:51;5.23;;;3.20;;
8540;SDS011;4308;51.294;6.590;2022-12-07T15:57:18;10.93;;;4.00;;
8540;SDS011;4308;51.294;6.590;2022-12-07T15:59:51;12.90;;;4.30;;
8540;SDS011;4308;51.294;6.590;2022-12-07T16:02:18;7.93;;;3.80;;
8540;SDS011;4308;51.294;6.590;2022-12-07T16:04:46;9.07;;;4.27;;
8540;SDS011;4308;51.294;6.590;2022-12-07T16:07:14;10.27;;;3.90;;
8540;SDS011;4308;51.294;6.590;2022-12-07T16:09:42;10.83;;;3.67;;
8540;SDS011;4308;51.294;6.590;2022-12-07T16:12:09;10.10;;;3.93;;
8540;SDS011;4308;51.294;6.590;2022-12-07T16:14:37;9.10;;;3.43;;
8540;SDS011;4308;51.294;6.590;2022-12-07T16:17:06;13.07;;;4.50;;
8540;SDS011;4308;51.294;6.590;2022-12-07T16:19:34;13.33;;;4.60;;
8540;SDS011;4308;51.294;6.590;2022-12-07T16:22:01;8.43;;;4.10;;
8540;SDS011;4308;51.294;6.590;2022-12-07T16:24:29;10.70;;;4.20;;
8540;SDS011;4308;51.294;6.590;2022-12-07T16:26:57;8.40;;;4.20;;
8540;SDS011;4308;51.294;6.590;2022-12-07T16:29:24;7.77;;;3.93;;
8540;SDS011;4308;51.294;6.590;2022-12-07T16:31:52;11.73;;;4.20;;
8540;SDS011;4308;51.294;6.590;2022-12-07T16:34:19;6.13;;;3.90;;
8540;SDS011;4308;51.294;6.590;2022-12-07T16:36:47;8.10;;;4.50;;
8540;SDS011;4308;51.294;6.590;2022-12-07T16:39:32;8.23;;;4.50;;
8540;SDS011;4308;51.294;6.590;2022-12-07T16:41:59;8.17;;;5.27;;
8540;SDS011;4308;51.294;6.590;2022-12-07T16:44:27;12.07;;;5.60;;
8540;SDS011;4308;51.294;6.590;2022-12-07T16:46:54;10.67;;;5.20;;
8540;SDS011;4308;51.294;6.590;2022-12-07T16:49:22;7.97;;;5.30;;
8540;SDS011;4308;51.294;6.590;2022-12-07T16:51:50;13.33;;;5.93;;
8540;SDS011;4308;51.294;6.590;2022-12-07T16:54:38;11.27;;;5.90;;
8540;SDS011;4308;51.294;6.590;2022-12-07T16:57:05;10.63;;;6.03;;
8540;SDS011;4308;51.294;6.590;2022-12-07T16:59:33;9.60;;;5.53;;
8540;SDS011;4308;51.294;6.590;2022-12-07T17:02:00;11.85;;;6.10;;
8540;SDS011;4308;51.294;6.590;2022-12-07T17:04:28;12.27;;;6.20;;
8540;SDS011;4308;51.294;6.590;2022-12-07T17:06:55;12.23;;;7.03;;
8540;SDS011;4308;51.294;6.590;2022-12-07T17:09:23;7.17;;;5.97;;
8540;SDS011;4308;51.294;6.590;2022-12-07T17:11:50;11.27;;;6.30;;
8540;SDS011;4308;51.294;6.590;2022-12-07T17:14:18;12.83;;;6.43;;
8540;SDS011;4308;51.294;6.590;2022-12-07T17:16:45;9.33;;;5.97;;
8540;SDS011;4308;51.294;6.590;2022-12-07T17:19:14;9.90;;;6.33;;
8540;SDS011;4308;51.294;6.590;2022-12-07T17:21:42;8.40;;;6.90;;
8540;SDS011;4308;51.294;6.590;2022-12-07T17:24:11;10.40;;;5.30;;